Time;durP1;ratioP1;P1;durP2;ratioP2;P2;SDS_P1;SDS_P2;PMS_P1;PMS_P2;Temp;Humidity;BMP_temperature;BMP_pressure;BME280_temperature;BME280_humidity;BME280_pressure;Samples;Min_cycle;Max_cycle;Signal;HPM_P1;HPM_P2
2021/09/28 00:01:17;;;;;;;;;3.00;3.00;;;;;;;;4991867;28;51591;-56
2021/09/28 00:03:42;;;;;;;;;3.00;3.00;;;;;;;;4989819;28;51305;-57
2021/09/28 00:06:07;;;;;;;;;4.00;4.00;;;;;;;;4990142;28;51146;-56
2021/09/28 00:08:32;;;;;;;;;3.00;3.00;;;;;;;;4979527;28;51320;-56
2021/09/28 00:10:57;;;;;;;;;4.33;3.00;;;;;;;;4992859;28;51090;-56
2021/09/28 00:13:23;;;;;;;;;3.00;3.00;;;;;;;;4996836;28;51859;-57
2021/09/28 00:15:48;;;;;;;;;5.00;4.00;;;;;;;;4982505;28;50979;-57
2021/09/28 00:18:13;;;;;;;;;3.00;2.33;;;;;;;;4989571;28;52428;-57
2021/09/28 00:20:39;;;;;;;;;3.67;3.67;;;;;;;;4994024;28;51354;-56
2021/09/28 00:23:13;;;;;;;;;4.00;4.00;;;;;;;;4991067;28;51248;-57
2021/09/28 00:25:38;;;;;;;;;5.00;5.00;;;;;;;;4986142;28;51097;-56
2021/09/28 00:28:03;;;;;;;;;5.00;5.00;;;;;;;;4985472;28;51003;-57
2021/09/28 00:30:29;;;;;;;;;4.00;4.00;;;;;;;;4997100;28;52869;-56
2021/09/28 00:32:54;;;;;;;;;5.00;5.00;;;;;;;;4988058;28;52698;-57
2021/09/28 00:35:19;;;;;;;;;5.00;4.00;;;;;;;;4988137;28;51083;-57
2021/09/28 00:37:44;;;;;;;;;3.00;3.00;;;;;;;;4997630;28;51130;-57
2021/09/28 00:40:10;;;;;;;;;3.33;3.33;;;;;;;;4986098;28;51410;-57
2021/09/28 00:42:36;;;;;;;;;4.33;4.33;;;;;;;;4991072;28;52788;-58
2021/09/28 00:45:01;;;;;;;;;3.00;3.00;;;;;;;;4988884;28;51083;-57
2021/09/28 00:47:27;;;;;;;;;3.00;3.00;;;;;;;;4992418;28;50929;-57
2021/09/28 00:49:52;;;;;;;;;3.00;2.67;;;;;;;;4991781;28;50960;-57
2021/09/28 00:52:18;;;;;;;;;3.00;3.00;;;;;;;;4986825;28;51062;-57
2021/09/28 00:54:44;;;;;;;;;4.00;3.67;;;;;;;;4978241;28;51002;-58
2021/09/28 00:57:10;;;;;;;;;4.33;3.33;;;;;;;;4979285;28;51044;-57
2021/09/28 00:59:36;;;;;;;;;5.33;4.67;;;;;;;;4991711;28;51013;-57
2021/09/28 01:02:02;;;;;;;;;3.33;3.33;;;;;;;;4987283;28;52139;-57
2021/09/28 01:04:28;;;;;;;;;5.00;5.00;;;;;;;;4976335;28;51170;-56
2021/09/28 01:06:53;;;;;;;;;6.00;5.00;;;;;;;;4989868;28;51037;-58
2021/09/28 01:09:18;;;;;;;;;4.00;3.67;;;;;;;;4994513;28;51150;-57
2021/09/28 01:11:43;;;;;;;;;6.00;4.00;;;;;;;;4988911;28;51834;-56
2021/09/28 01:14:09;;;;;;;;;4.00;4.00;;;;;;;;4980758;28;51224;-57
2021/09/28 01:16:34;;;;;;;;;5.67;5.00;;;;;;;;4984270;28;51292;-57
2021/09/28 01:18:59;;;;;;;;;5.00;4.67;;;;;;;;4989968;28;50946;-57
2021/09/28 01:21:25;;;;;;;;;5.67;5.67;;;;;;;;4974591;28;51812;-57
2021/09/28 01:23:50;;;;;;;;;5.00;5.00;;;;;;;;4974907;28;51824;-57
2021/09/28 01:26:17;;;;;;;;;5.00;5.00;;;;;;;;4989368;28;51101;-57
2021/09/28 01:28:43;;;;;;;;;6.33;6.33;;;;;;;;4990915;28;50968;-57
2021/09/28 01:31:08;;;;;;;;;6.33;6.00;;;;;;;;4974729;28;51129;-57
2021/09/28 01:33:33;;;;;;;;;2.00;2.00;;;;;;;;4975712;28;51125;-56
2021/09/28 01:35:58;;;;;;;;;6.00;6.00;;;;;;;;4978523;28;51483;-56
2021/09/28 01:38:24;;;;;;;;;6.67;6.00;;;;;;;;4982632;28;51279;-56
2021/09/28 01:40:49;;;;;;;;;6.67;6.67;;;;;;;;4972531;28;51205;-57
2021/09/28 01:43:14;;;;;;;;;7.00;7.00;;;;;;;;4964571;28;51028;-56
2021/09/28 01:45:43;;;;;;;;;6.00;6.00;;;;;;;;4966176;28;51150;-57
2021/09/28 01:48:08;;;;;;;;;7.00;6.33;;;;;;;;4954589;28;50980;-57
2021/09/28 01:50:34;;;;;;;;;6.67;6.67;;;;;;;;4953631;28;51572;-57
2021/09/28 01:52:59;;;;;;;;;6.00;5.00;;;;;;;;4949046;28;50895;-57
2021/09/28 01:55:25;;;;;;;;;7.00;6.00;;;;;;;;4964239;28;50890;-58
2021/09/28 01:57:55;;;;;;;;;6.00;6.00;;;;;;;;4954398;28;51084;-58
2021/09/28 02:00:21;;;;;;;;;5.75;5.75;;;;;;;;4953840;28;51103;-58
2021/09/28 02:02:46;;;;;;;;;7.00;6.67;;;;;;;;4954566;28;51335;-57
2021/09/28 02:05:11;;;;;;;;;6.00;6.00;;;;;;;;4969351;28;51089;-57
2021/09/28 02:07:36;;;;;;;;;6.00;6.00;;;;;;;;4970749;28;51082;-60
2021/09/28 02:10:02;;;;;;;;;7.75;7.00;;;;;;;;4969850;28;51134;-58
2021/09/28 02:12:27;;;;;;;;;5.25;5.00;;;;;;;;4967356;28;51068;-57
2021/09/28 02:14:52;;;;;;;;;6.00;5.25;;;;;;;;4966131;28;51231;-58
2021/09/28 02:17:17;;;;;;;;;6.00;6.00;;;;;;;;4968624;28;51258;-58
2021/09/28 02:19:43;;;;;;;;;10.25;8.75;;;;;;;;4972272;28;52152;-58
2021/09/28 02:22:08;;;;;;;;;5.00;4.67;;;;;;;;4971408;28;50957;-58
2021/09/28 02:24:33;;;;;;;;;6.75;6.75;;;;;;;;4970675;28;51093;-57
2021/09/28 02:26:58;;;;;;;;;8.25;6.75;;;;;;;;4970309;28;50897;-58
2021/09/28 02:29:23;;;;;;;;;5.75;5.25;;;;;;;;4965843;28;52258;-58
2021/09/28 02:31:49;;;;;;;;;5.33;5.33;;;;;;;;4953898;28;50899;-58
2021/09/28 02:34:14;;;;;;;;;6.25;6.25;;;;;;;;4969105;28;51056;-60
2021/09/28 02:36:39;;;;;;;;;6.00;6.00;;;;;;;;4973094;28;51361;-58
2021/09/28 02:39:08;;;;;;;;;6.33;5.00;;;;;;;;4982600;28;52273;-57
2021/09/28 02:41:33;;;;;;;;;6.00;6.00;;;;;;;;4988891;28;51082;-58
2021/09/28 02:44:00;;;;;;;;;4.67;4.00;;;;;;;;4989855;28;51249;-57
2021/09/28 02:46:26;;;;;;;;;7.00;6.00;;;;;;;;4982485;28;50995;-57
2021/09/28 02:48:51;;;;;;;;;6.00;6.00;;;;;;;;4987374;28;52628;-57
2021/09/28 02:51:16;;;;;;;;;6.50;6.00;;;;;;;;4989935;28;51099;-57
2021/09/28 02:53:41;;;;;;;;;8.75;7.00;;;;;;;;4988613;28;53289;-58
2021/09/28 02:56:06;;;;;;;;;8.25;6.50;;;;;;;;4992399;28;51296;-58
2021/09/28 02:58:32;;;;;;;;;9.50;7.25;;;;;;;;4988112;28;51162;-57
2021/09/28 03:00:57;;;;;;;;;6.50;6.50;;;;;;;;4974708;28;51018;-57
2021/09/28 03:03:22;;;;;;;;;7.50;7.25;;;;;;;;4981583;28;50905;-57
2021/09/28 03:05:48;;;;;;;;;6.75;6.75;;;;;;;;4990004;28;51038;-57
2021/09/28 03:08:13;;;;;;;;;5.00;5.00;;;;;;;;4990458;28;51737;-57
2021/09/28 03:10:40;;;;;;;;;5.33;5.33;;;;;;;;4972787;28;50928;-57
2021/09/28 03:13:05;;;;;;;;;6.00;6.00;;;;;;;;4981787;28;51265;-57
2021/09/28 03:15:30;;;;;;;;;6.00;5.00;;;;;;;;4985947;28;51239;-57
2021/09/28 03:17:56;;;;;;;;;6.00;6.00;;;;;;;;4990820;28;52347;-57
2021/09/28 03:20:21;;;;;;;;;9.00;6.25;;;;;;;;4993863;28;51521;-57
2021/09/28 03:22:46;;;;;;;;;6.00;6.00;;;;;;;;4977339;28;50937;-57
2021/09/28 03:25:12;;;;;;;;;4.00;4.00;;;;;;;;4994169;28;50991;-57
2021/09/28 03:27:37;;;;;;;;;5.50;4.75;;;;;;;;4991035;28;52069;-58
2021/09/28 03:30:04;;;;;;;;;5.50;5.00;;;;;;;;4982453;28;51128;-58
2021/09/28 03:32:29;;;;;;;;;5.75;5.75;;;;;;;;4991494;28;51339;-57
2021/09/28 03:34:54;;;;;;;;;9.00;8.75;;;;;;;;4985826;28;50960;-57
2021/09/28 03:37:19;;;;;;;;;6.00;6.00;;;;;;;;4992208;28;52234;-57
2021/09/28 03:39:45;;;;;;;;;5.50;5.50;;;;;;;;4985563;28;51143;-58
2021/09/28 03:42:10;;;;;;;;;6.00;6.00;;;;;;;;4992139;28;51162;-58
2021/09/28 03:44:35;;;;;;;;;5.00;5.00;;;;;;;;4994013;28;51418;-58
2021/09/28 03:47:00;;;;;;;;;6.25;5.50;;;;;;;;4992405;28;53100;-58
2021/09/28 03:49:25;;;;;;;;;5.00;5.00;;;;;;;;4977466;28;51271;-58
2021/09/28 03:51:51;;;;;;;;;5.50;5.50;;;;;;;;4990492;28;51058;-58
2021/09/28 03:54:16;;;;;;;;;7.50;7.50;;;;;;;;4979371;28;51314;-58
2021/09/28 03:56:41;;;;;;;;;6.00;5.25;;;;;;;;4981558;28;52029;-57
2021/09/28 03:59:06;;;;;;;;;5.25;5.25;;;;;;;;4993253;28;51006;-58
2021/09/28 04:01:31;;;;;;;;;4.25;4.25;;;;;;;;4975433;28;50828;-58
2021/09/28 04:03:57;;;;;;;;;6.00;5.00;;;;;;;;4978910;28;51305;-58
2021/09/28 04:06:22;;;;;;;;;6.75;6.75;;;;;;;;4993043;28;52398;-58
2021/09/28 04:08:47;;;;;;;;;6.00;5.00;;;;;;;;4982402;28;51064;-58
2021/09/28 04:11:12;;;;;;;;;5.75;5.75;;;;;;;;4988589;28;51210;-58
2021/09/28 04:13:40;;;;;;;;;8.00;6.00;;;;;;;;4985741;28;51262;-58
2021/09/28 04:16:07;;;;;;;;;4.50;4.50;;;;;;;;4987693;28;51346;-58
2021/09/28 04:18:32;;;;;;;;;5.25;5.25;;;;;;;;4975353;28;51044;-58
2021/09/28 04:20:57;;;;;;;;;5.00;4.50;;;;;;;;4974744;28;50928;-58
2021/09/28 04:23:23;;;;;;;;;5.00;5.00;;;;;;;;4983211;28;51051;-58
2021/09/28 04:25:48;;;;;;;;;4.75;4.75;;;;;;;;4994147;28;51090;-58
2021/09/28 04:28:13;;;;;;;;;6.50;5.00;;;;;;;;4985220;28;50986;-58
2021/09/28 04:30:38;;;;;;;;;4.75;4.50;;;;;;;;4987745;28;51245;-58
2021/09/28 04:33:04;;;;;;;;;6.50;5.50;;;;;;;;4983588;28;51078;-58
2021/09/28 04:35:29;;;;;;;;;5.00;5.00;;;;;;;;4992758;28;52719;-57
2021/09/28 04:37:54;;;;;;;;;6.67;6.67;;;;;;;;4992922;28;51189;-57
2021/09/28 04:40:20;;;;;;;;;4.00;4.00;;;;;;;;4993319;28;51212;-57
2021/09/28 04:42:45;;;;;;;;;6.50;5.00;;;;;;;;4987413;28;51107;-57
2021/09/28 04:45:10;;;;;;;;;4.67;4.67;;;;;;;;4974854;28;51820;-57
2021/09/28 04:47:36;;;;;;;;;5.33;5.33;;;;;;;;4988536;28;51107;-57
2021/09/28 04:50:02;;;;;;;;;5.33;5.33;;;;;;;;4988649;28;50949;-57
2021/09/28 04:52:27;;;;;;;;;7.25;6.00;;;;;;;;4982684;28;51175;-57
2021/09/28 04:54:52;;;;;;;;;5.75;5.00;;;;;;;;4992380;28;51264;-59
2021/09/28 04:57:18;;;;;;;;;10.50;7.50;;;;;;;;4979680;28;51132;-58
2021/09/28 04:59:43;;;;;;;;;5.25;4.50;;;;;;;;4988513;28;51062;-57
2021/09/28 05:02:08;;;;;;;;;5.75;5.75;;;;;;;;4979913;28;51169;-57
2021/09/28 05:04:34;;;;;;;;;3.00;3.00;;;;;;;;4979661;28;52844;-57
2021/09/28 05:06:59;;;;;;;;;3.00;3.00;;;;;;;;4996427;28;51064;-57
2021/09/28 05:09:24;;;;;;;;;4.00;3.00;;;;;;;;4994644;28;51185;-57
2021/09/28 05:11:49;;;;;;;;;3.33;3.33;;;;;;;;4985153;28;50996;-58
2021/09/28 05:14:15;;;;;;;;;1.67;1.33;;;;;;;;4993368;28;52034;-58
2021/09/28 05:16:40;;;;;;;;;5.00;4.00;;;;;;;;4986405;28;51847;-58
2021/09/28 05:19:06;;;;;;;;;2.67;2.67;;;;;;;;4990411;28;51109;-58
2021/09/28 05:21:31;;;;;;;;;3.00;3.00;;;;;;;;4985116;28;51200;-58
2021/09/28 05:23:56;;;;;;;;;4.00;4.00;;;;;;;;4986910;28;51160;-58
2021/09/28 05:26:23;;;;;;;;;3.00;3.00;;;;;;;;4983628;28;51323;-58
2021/09/28 05:28:49;;;;;;;;;3.00;3.00;;;;;;;;4988047;28;51195;-58
2021/09/28 05:31:14;;;;;;;;;4.50;4.00;;;;;;;;4982850;28;51042;-58
2021/09/28 05:33:40;;;;;;;;;3.00;3.00;;;;;;;;4989915;28;51090;-58
2021/09/28 05:36:05;;;;;;;;;6.50;5.75;;;;;;;;4988779;28;51138;-58
2021/09/28 05:38:30;;;;;;;;;3.00;3.00;;;;;;;;4993741;28;51109;-59
2021/09/28 05:40:55;;;;;;;;;4.00;4.00;;;;;;;;4987842;28;51115;-58
2021/09/28 05:43:21;;;;;;;;;5.00;5.00;;;;;;;;4992427;28;52253;-58
2021/09/28 05:45:46;;;;;;;;;6.67;6.33;;;;;;;;4987758;28;51081;-59
2021/09/28 05:48:11;;;;;;;;;4.00;3.67;;;;;;;;4989193;28;51146;-59
2021/09/28 05:50:37;;;;;;;;;4.00;4.00;;;;;;;;4990121;28;50908;-59
2021/09/28 05:53:08;;;;;;;;;6.00;6.00;;;;;;;;4986092;28;51887;-59
2021/09/28 05:55:34;;;;;;;;;5.00;4.00;;;;;;;;4979630;28;51208;-59
2021/09/28 05:57:59;;;;;;;;;5.00;5.00;;;;;;;;4991347;28;51221;-58
2021/09/28 06:00:24;;;;;;;;;4.67;4.00;;;;;;;;4986662;28;51089;-59
2021/09/28 06:02:49;;;;;;;;;4.33;4.33;;;;;;;;4988696;28;52272;-59
2021/09/28 06:05:15;;;;;;;;;5.67;5.67;;;;;;;;4987372;28;50940;-57
2021/09/28 06:07:40;;;;;;;;;5.75;5.75;;;;;;;;4987943;28;51527;-58
2021/09/28 06:10:06;;;;;;;;;6.00;5.33;;;;;;;;4984678;28;51103;-58
2021/09/28 06:12:31;;;;;;;;;10.00;9.00;;;;;;;;4984745;28;51299;-58
2021/09/28 06:14:56;;;;;;;;;6.67;5.67;;;;;;;;4983354;28;51204;-58
2021/09/28 06:17:22;;;;;;;;;6.00;6.00;;;;;;;;4983644;28;51613;-58
2021/09/28 06:19:47;;;;;;;;;5.75;5.75;;;;;;;;4989339;28;51010;-58
2021/09/28 06:22:12;;;;;;;;;4.67;4.67;;;;;;;;4986778;28;51077;-58
2021/09/28 06:24:38;;;;;;;;;5.00;5.00;;;;;;;;4986509;28;50970;-57
2021/09/28 06:27:04;;;;;;;;;5.25;5.25;;;;;;;;4983670;28;51253;-56
2021/09/28 06:29:30;;;;;;;;;5.67;5.67;;;;;;;;4982323;28;51291;-58
2021/09/28 06:31:55;;;;;;;;;6.00;6.00;;;;;;;;4987551;28;51206;-58
2021/09/28 06:34:21;;;;;;;;;7.00;7.00;;;;;;;;4991755;28;51139;-58
2021/09/28 06:36:46;;;;;;;;;8.75;8.75;;;;;;;;4981585;28;51205;-58
2021/09/28 06:39:11;;;;;;;;;13.50;13.25;;;;;;;;4990534;28;51663;-58
2021/09/28 06:41:37;;;;;;;;;10.50;7.50;;;;;;;;4983149;28;52021;-57
2021/09/28 06:44:05;;;;;;;;;8.00;8.00;;;;;;;;4986920;28;51292;-58
2021/09/28 06:46:30;;;;;;;;;8.67;7.33;;;;;;;;4991394;28;51189;-58
2021/09/28 06:48:55;;;;;;;;;10.50;8.00;;;;;;;;4988772;28;50987;-58
2021/09/28 06:51:21;;;;;;;;;8.50;8.50;;;;;;;;4989176;28;52032;-58
2021/09/28 06:53:47;;;;;;;;;9.67;9.67;;;;;;;;4991861;28;51244;-57
2021/09/28 06:56:12;;;;;;;;;7.33;7.33;;;;;;;;4975948;28;51160;-58
2021/09/28 06:58:38;;;;;;;;;8.33;7.00;;;;;;;;4991076;28;50903;-58
2021/09/28 07:01:03;;;;;;;;;7.67;7.00;;;;;;;;4995016;28;52200;-58
2021/09/28 07:03:28;;;;;;;;;10.00;9.00;;;;;;;;4989959;28;50800;-58
2021/09/28 07:05:53;;;;;;;;;11.33;9.33;;;;;;;;4975521;28;50998;-58
2021/09/28 07:08:19;;;;;;;;;15.25;13.25;;;;;;;;4981424;28;51099;-58
2021/09/28 07:10:44;;;;;;;;;14.50;13.75;;;;;;;;4993115;28;52343;-57
2021/09/28 07:13:09;;;;;;;;;10.67;10.67;;;;;;;;4996919;28;51010;-58
2021/09/28 07:15:34;;;;;;;;;10.67;10.67;;;;;;;;4993977;28;50892;-58
2021/09/28 07:18:00;;;;;;;;;13.00;13.00;;;;;;;;4982121;28;50782;-58
2021/09/28 07:20:25;;;;;;;;;17.25;14.50;;;;;;;;4974599;28;51914;-58
2021/09/28 07:22:50;;;;;;;;;11.67;10.67;;;;;;;;4975361;28;51062;-58
2021/09/28 07:25:16;;;;;;;;;8.00;8.00;;;;;;;;4993211;28;51109;-58
2021/09/28 07:27:41;;;;;;;;;9.67;9.00;;;;;;;;4998675;28;51321;-58
2021/09/28 07:30:07;;;;;;;;;7.33;7.00;;;;;;;;4979815;28;51959;-58
2021/09/28 07:32:32;;;;;;;;;8.00;8.00;;;;;;;;4986677;28;51179;-58
2021/09/28 07:34:58;;;;;;;;;8.00;6.67;;;;;;;;4975183;28;50958;-58
2021/09/28 07:37:27;;;;;;;;;7.33;7.33;;;;;;;;4990662;28;51401;-58
2021/09/28 07:39:53;;;;;;;;;13.67;11.33;;;;;;;;4987919;28;51171;-58
2021/09/28 07:42:18;;;;;;;;;17.25;16.25;;;;;;;;4992814;28;51035;-59
2021/09/28 07:44:44;;;;;;;;;7.67;7.67;;;;;;;;4994223;28;50869;-59
2021/09/28 07:47:09;;;;;;;;;11.67;9.67;;;;;;;;4993799;28;50893;-58
2021/09/28 07:49:34;;;;;;;;;6.33;6.33;;;;;;;;4981778;28;51002;-58
2021/09/28 07:51:59;;;;;;;;;8.00;7.00;;;;;;;;4975282;28;51054;-57
2021/09/28 07:54:25;;;;;;;;;9.33;9.00;;;;;;;;4985347;28;51091;-58
2021/09/28 07:56:50;;;;;;;;;9.00;8.00;;;;;;;;4986360;28;52266;-58
2021/09/28 07:59:15;;;;;;;;;10.00;9.00;;;;;;;;4988896;28;51004;-58
2021/09/28 08:01:41;;;;;;;;;10.00;9.00;;;;;;;;4981404;28;50945;-57
2021/09/28 08:04:06;;;;;;;;;10.67;9.33;;;;;;;;4976095;28;51094;-58
2021/09/28 08:06:31;;;;;;;;;16.67;14.33;;;;;;;;4974866;28;51265;-58
2021/09/28 08:08:56;;;;;;;;;12.33;11.33;;;;;;;;4981111;28;52068;-57
2021/09/28 08:11:21;;;;;;;;;9.00;9.00;;;;;;;;4987168;28;51146;-57
2021/09/28 08:13:47;;;;;;;;;12.00;12.00;;;;;;;;4997971;28;54049;-58
2021/09/28 08:16:12;;;;;;;;;12.33;10.00;;;;;;;;4986840;28;51219;-58
2021/09/28 08:18:37;;;;;;;;;9.67;9.00;;;;;;;;4975308;28;51812;-57
2021/09/28 08:21:03;;;;;;;;;14.67;13.67;;;;;;;;4987919;28;51007;-58
2021/09/28 08:23:28;;;;;;;;;13.33;12.00;;;;;;;;4985786;28;51017;-58
2021/09/28 08:31:03;;;;;;;;;13.33;13.00;;;;;;;;4977176;28;51105;-58
2021/09/28 08:33:29;;;;;;;;;12.33;11.33;;;;;;;;4983783;28;51117;-58
2021/09/28 08:35:55;;;;;;;;;10.33;10.33;;;;;;;;4991095;28;51361;-58
2021/09/28 08:38:20;;;;;;;;;12.00;11.33;;;;;;;;4987531;28;53127;-58
2021/09/28 08:40:45;;;;;;;;;12.33;11.67;;;;;;;;4973530;28;50990;-58
2021/09/28 08:43:10;;;;;;;;;11.00;9.33;;;;;;;;4990035;28;51067;-58
2021/09/28 08:45:36;;;;;;;;;12.67;10.67;;;;;;;;4979511;28;51167;-58
2021/09/28 08:48:01;;;;;;;;;11.00;10.00;;;;;;;;4986388;28;52307;-58
2021/09/28 08:50:26;;;;;;;;;9.00;8.67;;;;;;;;4984882;28;51224;-58
2021/09/28 08:52:52;;;;;;;;;9.33;9.00;;;;;;;;4990513;28;50995;-58
2021/09/28 08:55:17;;;;;;;;;12.67;11.00;;;;;;;;4987854;28;50986;-58
2021/09/28 08:57:43;;;;;;;;;11.67;10.33;;;;;;;;4972124;28;53936;-58
2021/09/28 09:00:17;;;;;;;;;11.00;9.33;;;;;;;;4973126;28;51210;-58
2021/09/28 09:02:43;;;;;;;;;12.00;11.00;;;;;;;;4973225;28;51244;-58
2021/09/28 09:05:13;;;;;;;;;9.00;9.00;;;;;;;;4973734;28;50898;-58
2021/09/28 09:07:39;;;;;;;;;9.00;8.33;;;;;;;;4987911;28;51089;-58
2021/09/28 09:10:05;;;;;;;;;10.67;10.00;;;;;;;;4991471;28;51054;-53
2021/09/28 09:12:39;;;;;;;;;10.33;10.33;;;;;;;;4993846;28;51324;-55
2021/09/28 09:15:18;;;;;;;;;13.67;12.00;;;;;;;;4993460;28;51099;-56
2021/09/28 09:17:44;;;;;;;;;11.67;11.00;;;;;;;;4985142;28;51668;-55
2021/09/28 09:20:28;;;;;;;;;9.00;9.00;;;;;;;;4975839;28;50910;-56
2021/09/28 09:22:54;;;;;;;;;10.00;9.33;;;;;;;;4984299;28;50948;-55
2021/09/28 09:25:20;;;;;;;;;7.33;7.00;;;;;;;;4972220;28;50876;-55
2021/09/28 09:27:46;;;;;;;;;14.67;13.00;;;;;;;;4978759;28;51955;-54
2021/09/28 09:30:18;;;;;;;;;13.00;12.00;;;;;;;;4991968;28;50934;-56
2021/09/28 09:32:55;;;;;;;;;7.33;6.33;;;;;;;;4992756;28;51062;-55
2021/09/28 09:35:23;;;;;;;;;8.00;7.00;;;;;;;;4992675;28;51098;-55
2021/09/28 09:37:49;;;;;;;;;5.00;5.00;;;;;;;;4992130;28;51879;-54
2021/09/28 09:40:29;;;;;;;;;6.00;6.00;;;;;;;;4989801;28;51024;-56
2021/09/28 09:42:54;;;;;;;;;5.00;4.00;;;;;;;;4972823;28;50880;-55
2021/09/28 09:45:23;;;;;;;;;7.33;7.00;;;;;;;;4972341;28;50874;-54
2021/09/28 09:47:49;;;;;;;;;9.00;8.67;;;;;;;;4956614;28;51742;-55
2021/09/28 09:50:16;;;;;;;;;10.00;10.00;;;;;;;;4985061;28;51288;-55
2021/09/28 09:52:56;;;;;;;;;6.00;5.00;;;;;;;;4981691;28;52312;-55
2021/09/28 09:55:28;;;;;;;;;5.33;5.00;;;;;;;;4983052;28;51084;-54
2021/09/28 09:57:54;;;;;;;;;4.00;4.00;;;;;;;;4971831;28;51010;-55
2021/09/28 10:00:20;;;;;;;;;7.00;6.00;;;;;;;;4981306;28;51406;-55
2021/09/28 10:02:46;;;;;;;;;8.67;8.00;;;;;;;;4972285;28;51182;-54
2021/09/28 10:05:11;;;;;;;;;5.00;5.00;;;;;;;;4972726;28;51111;-56
2021/09/28 10:07:36;;;;;;;;;4.00;4.00;;;;;;;;4971952;28;52103;-56
2021/09/28 10:10:01;;;;;;;;;4.67;4.67;;;;;;;;4972243;28;50808;-54
2021/09/28 10:12:35;;;;;;;;;46.00;38.50;;;;;;;;4973479;28;51173;-54
2021/09/28 10:15:08;;;;;;;;;8.67;8.33;;;;;;;;4993990;28;51202;-55
2021/09/28 10:17:40;;;;;;;;;6.00;4.00;;;;;;;;4978490;28;50966;-56
2021/09/28 10:20:10;;;;;;;;;4.33;4.00;;;;;;;;4978856;28;51317;-56
2021/09/28 10:22:36;;;;;;;;;3.00;3.00;;;;;;;;4983348;28;50902;-55
2021/09/28 10:25:19;;;;;;;;;3.00;2.33;;;;;;;;4972054;28;50871;-57
2021/09/28 10:27:46;;;;;;;;;5.67;4.00;;;;;;;;4970736;28;52630;-54
2021/09/28 10:30:31;;;;;;;;;2.67;2.67;;;;;;;;4971450;28;51039;-54
2021/09/28 10:32:57;;;;;;;;;7.33;7.33;;;;;;;;4971359;28;51341;-53
2021/09/28 10:35:24;;;;;;;;;5.67;5.67;;;;;;;;4971858;28;50979;-54
2021/09/28 10:38:15;;;;;;;;;4.00;3.67;;;;;;;;4988528;28;50988;-56
2021/09/28 10:40:43;;;;;;;;;9.00;8.67;;;;;;;;4970206;28;51090;-55
2021/09/28 10:43:09;;;;;;;;;7.33;6.33;;;;;;;;4987955;28;51304;-54
2021/09/28 10:45:36;;;;;;;;;6.67;6.00;;;;;;;;4972086;28;50932;-56
2021/09/28 10:48:11;;;;;;;;;4.00;3.67;;;;;;;;4971217;28;51282;-54
2021/09/28 10:50:40;;;;;;;;;3.67;3.67;;;;;;;;4977635;28;51081;-55
2021/09/28 10:53:06;;;;;;;;;7.00;6.00;;;;;;;;4990664;28;50947;-54
2021/09/28 10:55:33;;;;;;;;;5.00;4.00;;;;;;;;4991057;28;51160;-56
2021/09/28 10:58:01;;;;;;;;;5.00;4.00;;;;;;;;4989819;28;53177;-55
2021/09/28 11:00:27;;;;;;;;;5.00;4.00;;;;;;;;4969412;28;50964;-54
2021/09/28 11:02:54;;;;;;;;;6.00;5.00;;;;;;;;4971175;28;51076;-55
2021/09/28 11:05:28;;;;;;;;;5.67;5.33;;;;;;;;4971585;28;50906;-54
2021/09/28 11:07:53;;;;;;;;;5.67;4.67;;;;;;;;4971064;28;51457;-54
2021/09/28 11:10:19;;;;;;;;;11.00;9.67;;;;;;;;4970431;28;50950;-56
2021/09/28 11:12:44;;;;;;;;;6.33;6.00;;;;;;;;4987786;28;51090;-55
2021/09/28 11:15:09;;;;;;;;;7.00;7.00;;;;;;;;4989730;28;51209;-56
2021/09/28 11:17:35;;;;;;;;;3.33;3.33;;;;;;;;4980576;28;52471;-55
2021/09/28 11:20:00;;;;;;;;;4.00;3.00;;;;;;;;4971326;28;51000;-54
2021/09/28 11:22:26;;;;;;;;;9.67;8.00;;;;;;;;4971223;28;50954;-55
2021/09/28 11:24:52;;;;;;;;;6.00;5.33;;;;;;;;4971421;28;51390;-55
2021/09/28 11:27:17;;;;;;;;;5.00;4.33;;;;;;;;4970539;28;51775;-55
2021/09/28 11:29:42;;;;;;;;;5.33;4.00;;;;;;;;4970813;28;50975;-55
2021/09/28 11:32:08;;;;;;;;;4.00;4.00;;;;;;;;4969127;28;51083;-54
2021/09/28 11:34:35;;;;;;;;;3.33;2.00;;;;;;;;4970100;28;51441;-55
2021/09/28 11:37:04;;;;;;;;;1.00;1.00;;;;;;;;4976367;28;52197;-54
2021/09/28 11:39:31;;;;;;;;;12.00;10.33;;;;;;;;4991801;28;50932;-55
2021/09/28 11:41:56;;;;;;;;;7.67;7.00;;;;;;;;4987343;28;51071;-55
2021/09/28 11:44:22;;;;;;;;;8.33;7.33;;;;;;;;4988598;28;51259;-55
2021/09/28 11:46:47;;;;;;;;;15.25;14.25;;;;;;;;4973897;28;51915;-54
2021/09/28 11:49:12;;;;;;;;;9.67;8.00;;;;;;;;4974430;28;51060;-55
2021/09/28 11:51:38;;;;;;;;;3.00;3.00;;;;;;;;4974240;28;51028;-54
2021/09/28 11:54:05;;;;;;;;;9.00;9.00;;;;;;;;4974293;28;51351;-55
2021/09/28 11:56:31;;;;;;;;;4.67;4.00;;;;;;;;4974430;28;52085;-53
2021/09/28 11:58:57;;;;;;;;;6.67;6.00;;;;;;;;4972556;28;51018;-55
2021/09/28 12:01:23;;;;;;;;;2.00;2.00;;;;;;;;4973566;28;51008;-55
2021/09/28 12:05:04;;;;;;;;;2.67;2.67;;;;;;;;4974111;28;51227;-55
2021/09/28 12:09:38;;;;;;;;;2.67;2.00;;;;;;;;4974100;28;50802;-55
2021/09/28 12:12:11;;;;;;;;;3.33;2.33;;;;;;;;4987665;28;51199;-54
2021/09/28 12:14:37;;;;;;;;;1.00;0.67;;;;;;;;4986173;28;51384;-54
2021/09/28 12:17:09;;;;;;;;;1.00;1.00;;;;;;;;4978626;28;52343;-56
2021/09/28 12:19:35;;;;;;;;;3.00;3.00;;;;;;;;4978337;28;51064;-53
2021/09/28 12:22:01;;;;;;;;;3.00;3.00;;;;;;;;4974167;28;51087;-54
2021/09/28 12:24:29;;;;;;;;;4.00;3.00;;;;;;;;4973690;28;51234;-56
2021/09/28 12:27:03;;;;;;;;;2.67;2.00;;;;;;;;4973634;28;52994;-56
2021/09/28 12:29:37;;;;;;;;;0.00;0.00;;;;;;;;4972151;28;51253;-53
2021/09/28 12:32:04;;;;;;;;;2.67;2.67;;;;;;;;4973292;28;51118;-54
2021/09/28 12:34:29;;;;;;;;;2.33;2.33;;;;;;;;4971964;28;51349;-53
2021/09/28 12:37:01;;;;;;;;;1.00;1.00;;;;;;;;4975459;28;53094;-54
2021/09/28 12:39:27;;;;;;;;;3.67;3.67;;;;;;;;4978853;28;50904;-54
2021/09/28 12:41:56;;;;;;;;;5.00;4.00;;;;;;;;4986548;28;51118;-53
2021/09/28 12:44:23;;;;;;;;;1.00;1.00;;;;;;;;4974652;28;51100;-54
2021/09/28 12:46:48;;;;;;;;;1.00;0.33;;;;;;;;4972980;28;52046;-56
2021/09/28 12:49:26;;;;;;;;;20.75;18.75;;;;;;;;4972167;28;51024;-56
2021/09/28 12:51:52;;;;;;;;;3.67;3.67;;;;;;;;4973559;28;50991;-55
2021/09/28 12:54:19;;;;;;;;;2.33;1.00;;;;;;;;4977864;28;51061;-55
2021/09/28 12:56:44;;;;;;;;;2.00;2.00;;;;;;;;4978617;28;51116;-56
2021/09/28 12:59:09;;;;;;;;;1.00;1.00;;;;;;;;4973120;28;50869;-55
2021/09/28 13:01:41;;;;;;;;;0.33;0.33;;;;;;;;4972963;28;50908;-55
2021/09/28 13:04:08;;;;;;;;;4.00;2.67;;;;;;;;4983763;28;51088;-55
2021/09/28 13:06:38;;;;;;;;;4.00;3.67;;;;;;;;4978055;28;51482;-56
2021/09/28 13:09:03;;;;;;;;;4.67;4.00;;;;;;;;4973318;28;51054;-56
2021/09/28 13:11:28;;;;;;;;;4.67;4.00;;;;;;;;4973061;28;51031;-55
2021/09/28 13:13:53;;;;;;;;;3.67;3.67;;;;;;;;4981929;28;51145;-61
2021/09/28 13:16:20;;;;;;;;;2.33;2.00;;;;;;;;4984990;28;52147;-56
2021/09/28 13:18:45;;;;;;;;;2.00;1.00;;;;;;;;4984572;28;50993;-56
2021/09/28 13:21:10;;;;;;;;;1.00;0.00;;;;;;;;4972765;28;51043;-55
2021/09/28 13:23:36;;;;;;;;;2.00;1.00;;;;;;;;4973133;28;51372;-54
2021/09/28 13:26:01;;;;;;;;;1.67;1.67;;;;;;;;4972455;28;52159;-56
2021/09/28 13:28:26;;;;;;;;;1.67;1.67;;;;;;;;4973009;28;51003;-54
2021/09/28 13:30:51;;;;;;;;;5.00;4.00;;;;;;;;4972441;28;51072;-53
2021/09/28 13:33:17;;;;;;;;;5.00;5.00;;;;;;;;4975081;28;51411;-55
2021/09/28 13:35:42;;;;;;;;;2.00;2.00;;;;;;;;4988503;28;52232;-55
2021/09/28 13:38:08;;;;;;;;;1.33;1.33;;;;;;;;4978193;28;50961;-54
2021/09/28 13:40:34;;;;;;;;;2.33;1.33;;;;;;;;4971133;28;51278;-56
2021/09/28 13:42:59;;;;;;;;;2.67;2.00;;;;;;;;4971662;28;51003;-55
2021/09/28 13:45:25;;;;;;;;;1.00;1.00;;;;;;;;4972419;28;51121;-54
2021/09/28 13:47:50;;;;;;;;;2.00;2.00;;;;;;;;4972343;28;50904;-54
2021/09/28 13:50:15;;;;;;;;;1.67;1.33;;;;;;;;4977293;28;51199;-56
2021/09/28 13:52:41;;;;;;;;;0.00;0.00;;;;;;;;4975399;28;51284;-55
2021/09/28 13:55:07;;;;;;;;;2.00;1.67;;;;;;;;4976976;28;50952;-55
2021/09/28 13:57:32;;;;;;;;;1.67;1.00;;;;;;;;4972509;28;50956;-56
2021/09/28 13:59:58;;;;;;;;;2.00;2.00;;;;;;;;4972397;28;51135;-54
2021/09/28 14:02:23;;;;;;;;;2.00;2.00;;;;;;;;4973196;28;51290;-56
2021/09/28 14:04:48;;;;;;;;;2.00;1.00;;;;;;;;4980128;28;51120;-55
2021/09/28 14:07:13;;;;;;;;;2.00;1.00;;;;;;;;4990205;28;51269;-54
2021/09/28 14:09:39;;;;;;;;;5.33;4.00;;;;;;;;4991307;28;51343;-53
2021/09/28 14:12:05;;;;;;;;;2.00;2.00;;;;;;;;4991909;28;50980;-55
2021/09/28 14:14:30;;;;;;;;;1.00;1.00;;;;;;;;4997531;28;52068;-55
2021/09/28 14:16:55;;;;;;;;;1.00;1.00;;;;;;;;4978646;28;51108;-53
2021/09/28 14:19:20;;;;;;;;;3.33;2.33;;;;;;;;4972151;28;51225;-53
2021/09/28 14:21:46;;;;;;;;;9.00;8.00;;;;;;;;4972386;28;51176;-54
2021/09/28 14:24:12;;;;;;;;;2.00;2.00;;;;;;;;4971814;28;51392;-56
2021/09/28 14:26:37;;;;;;;;;1.00;1.00;;;;;;;;4972159;28;50894;-55
2021/09/28 14:29:02;;;;;;;;;0.67;0.67;;;;;;;;4971466;28;51045;-54
2021/09/28 14:31:28;;;;;;;;;1.00;1.00;;;;;;;;4971431;28;51089;-56
2021/09/28 14:33:53;;;;;;;;;1.67;1.33;;;;;;;;4971095;28;51892;-56
2021/09/28 14:36:18;;;;;;;;;0.67;0.67;;;;;;;;4971382;28;51017;-55
2021/09/28 14:38:45;;;;;;;;;1.67;1.67;;;;;;;;4984076;28;50943;-55
2021/09/28 14:41:11;;;;;;;;;2.00;2.00;;;;;;;;4971880;28;50890;-54
2021/09/28 14:43:36;;;;;;;;;1.67;1.00;;;;;;;;4971358;28;51650;-55